Date,TemperatureHighF,TemperatureAvgF,TemperatureLowF,DewpointHighF,DewpointAvgF,DewpointLowF,HumidityHigh,HumidityAvg,HumidityLow,PressureMaxIn,PressureMinIn,WindSpeedMaxMPH,WindSpeedAvgMPH,GustSpeedMaxMPH,PrecipitationSumIn
2013-1-1,20,-1,-16,-100,-100,-100,0,0,100,0.00,40.00,0,-999,0,0.00
2013-1-2,18,-10,-24,-100,-100,-100,0,0,100,0.00,40.00,0,-999,0,0.00
2013-1-3,16,-12,-29,-100,-100,-100,0,0,100,0.00,40.00,0,-999,0,0.00
2013-1-4,18,-10,-25,-100,-100,-100,0,0,100,0.00,40.00,0,-999,0,0.00
2013-1-5,21,-9,-25,-100,-100,-100,0,0,100,0.00,40.00,0,-999,0,0.00
2013-1-6,13,-6,-24,-100,-100,-100,0,0,100,0.00,40.00,0,-999,0,0.00
2013-1-7,25,-2,-14,-100,-100,-100,0,0,100,0.00,40.00,0,-999,0,0.00
2013-1-8,24,-2,-16,-100,-100,-100,0,0,100,0.00,40.00,0,-999,0,0.00
2013-1-9,30,1,-15,-100,-100,-100,0,0,100,0.00,40.00,0,-999,0,0.00
2013-1-10,19,3,-14,-100,-100,-100,0,0,100,0.00,40.00,0,-999,0,0.00
2013-1-11,20,10,-3,-100,-100,-100,0,0,100,0.00,40.00,0,-999,0,0.00
2013-1-12,14,-8,-23,-100,-100,-100,0,0,100,0.00,40.00,0,-999,0,0.00
2013-1-13,5,-10,-23,-100,-100,-100,0,0,100,0.00,40.00,0,-999,0,0.00
2013-1-14,15,-10,-22,-100,-100,-100,0,0,100,0.00,40.00,0,-999,0,0.00
2013-1-15,11,-13,-32,-100,-100,-100,0,0,100,0.00,40.00,0,-999,0,0.00
2013-1-16,24,-3,-18,-100,-100,-100,0,0,100,0.00,40.00,0,-999,0,0.00
2013-1-17,29,-2,-18,-100,-100,-100,0,0,100,0.00,40.00,0,-999,0,0.00
2013-1-18,28,-3,-18,-100,-100,-100,0,0,100,0.00,40.00,0,-999,0,0.00
2013-1-19,29,-2,-19,-100,-100,-100,0,0,100,0.00,40.00,0,-999,0,0.00
2013-1-20,28,-2,-22,-100,-100,-100,0,0,100,0.00,40.00,0,-999,0,0.00
2013-3-18,37,33,27,-100,-100,-100,0,0,100,0.00,40.00,0,-999,0,0.00
2013-3-19,50,35,24,-100,-100,-100,0,0,100,0.00,40.00,0,-999,0,0.00
2013-3-20,45,29,13,-100,-100,-100,0,0,100,0.00,40.00,0,-999,0,0.00
2013-3-21,45,34,23,-100,-100,-100,0,0,100,0.00,40.00,0,-999,0,0.15
2013-3-22,43,26,13,-100,-100,-100,0,0,100,0.00,40.00,0,-999,0,0.01
2013-3-23,28,20,10,-100,-100,-100,0,0,100,0.00,40.00,0,-999,0,0.00
2013-3-24,30,15,1,-100,-100,-100,0,0,100,0.00,40.00,0,-999,0,0.00
2013-3-25,42,19,1,-100,-100,-100,0,0,100,0.00,40.00,0,-999,0,0.00
2013-3-26,57,31,14,-100,-100,-100,0,0,100,0.00,40.00,0,-999,0,0.00
2013-3-27,58,40,24,-100,-100,-100,0,0,100,0.00,40.00,0,-999,0,0.00
2013-3-28,59,39,20,-100,-100,-100,0,0,100,0.00,40.00,0,-999,0,0.00
2013-3-29,57,37,23,-100,-100,-100,0,0,100,0.00,40.00,0,-999,0,0.00
2013-3-30,59,42,23,-100,-100,-100,0,0,100,0.00,40.00,0,-999,0,0.00
2013-3-31,62,44,23,-100,-100,-100,0,0,100,0.00,40.00,0,-999,0,0.01
2013-4-1,61,42,25,-100,-100,-100,0,0,100,0.00,40.00,0,-999,0,0.01
2013-4-2,59,39,24,-100,-100,-100,0,0,100,0.00,40.00,0,-999,0,0.00
2013-4-3,53,38,30,-100,-100,-100,0,0,100,0.00,40.00,0,-999,0,0.01
2013-4-4,65,43,19,-100,-100,-100,0,0,100,0.00,40.00,0,-999,0,0.01
2013-4-5,58,43,27,-100,-100,-100,0,0,100,0.00,40.00,0,-999,0,0.00
2013-4-6,59,41,26,-100,-100,-100,0,0,100,0.00,40.00,0,-999,0,0.01
2013-4-7,54,42,30,-100,-100,-100,0,0,100,0.00,40.00,0,-999,0,0.01
2013-4-8,50,36,29,-100,-100,-100,0,0,100,0.00,40.00,0,-999,0,0.00
2013-4-9,41,32,19,-100,-100,-100,0,0,100,0.00,40.00,0,-999,0,0.28
2013-4-10,34,23,11,-100,-100,-100,0,0,100,0.00,40.00,0,-999,0,0.11
2013-4-11,46,33,20,-100,-100,-100,0,0,100,0.00,40.00,0,-999,0,0.01
2013-4-12,48,36,25,-100,-100,-100,0,0,100,0.00,40.00,0,-999,0,0.01
2013-4-13,58,40,19,-100,-100,-100,0,0,100,0.00,40.00,0,-999,0,0.01
2013-4-14,47,38,32,-100,-100,-100,0,0,100,0.00,40.00,0,-999,0,0.26
2013-4-15,56,40,31,-100,-100,-100,0,0,100,0.00,40.00,0,-999,0,0.01
2013-4-16,62,44,25,-100,-100,-100,0,0,100,0.00,40.00,0,-999,0,0.01
2013-4-17,43,32,20,-100,-100,-100,0,0,100,0.00,40.00,0,-999,0,0.01
2013-4-18,34,22,14,-100,-100,-100,0,0,100,0.00,40.00,0,-999,0,0.00
2013-4-19,49,30,12,-100,-100,-100,0,0,100,0.00,40.00,0,-999,0,0.00
2013-4-20,49,36,24,-100,-100,-100,0,0,100,0.00,40.00,0,-999,0,0.02
2013-4-21,58,41,22,-100,-100,-100,0,0,100,0.00,40.00,0,-999,0,0.02
2013-4-22,59,46,34,-100,-100,-100,0,0,100,0.00,40.00,0,-999,0,0.01
2013-4-23,46,35,21,-100,-100,-100,0,0,100,0.00,40.00,0,-999,0,0.01
2013-4-24,48,32,18,-100,-100,-100,0,0,100,0.00,40.00,0,-999,0,0.01
2013-4-25,64,41,20,-100,-100,-100,0,0,100,0.00,40.00,0,-999,0,0.01
2013-4-26,65,45,21,-100,-100,-100,0,0,100,0.00,40.00,0,-999,0,0.01
2013-4-27,68,44,21,-100,-100,-100,0,0,100,0.00,40.00,0,-999,0,0.01
2013-4-28,71,46,22,-100,-100,-100,0,0,100,0.00,40.00,0,-999,0,0.01
2013-4-29,71,50,28,-100,-100,-100,0,0,100,0.00,40.00,0,-999,0,0.00
2013-4-30,72,54,29,-100,-100,-100,0,0,100,0.00,40.00,0,-999,0,0.00
2013-5-1,55,42,26,-100,-100,-100,0,0,100,0.00,40.00,0,-999,0,0.06
2013-5-2,53,35,16,-100,-100,-100,0,0,100,0.00,40.00,0,-999,0,0.01
2013-5-3,67,40,16,-100,-100,-100,0,0,100,0.00,40.00,0,-999,0,0.01
2013-5-4,69,44,21,-100,-100,-100,0,0,100,0.00,40.00,0,-999,0,0.01
2013-5-5,62,47,33,-100,-100,-100,0,0,100,0.00,40.00,0,-999,0,0.00
2013-5-6,60,45,37,-100,-100,-100,0,0,100,0.00,40.00,0,-999,0,0.06
2013-5-7,56,42,35,-100,-100,-100,0,0,100,0.00,40.00,0,-999,0,0.11
2013-5-8,51,40,32,-100,-100,-100,0,0,100,0.00,40.00,0,-999,0,0.09
2013-5-9,54,41,32,-100,-100,-100,0,0,100,0.00,40.00,0,-999,0,0.20
2013-5-10,64,44,26,-100,-100,-100,0,0,100,0.00,40.00,0,-999,0,0.02
2013-5-11,67,45,28,-100,-100,-100,0,0,100,0.00,40.00,0,-999,0,0.01
2013-5-12,72,54,35,-100,-100,-100,0,0,100,0.00,40.00,0,-999,0,0.01
2013-5-13,80,53,32,-100,-100,-100,0,0,100,0.00,40.00,0,-999,0,0.01
2013-5-14,79,53,33,-100,-100,-100,0,0,100,0.00,40.00,0,-999,0,0.01
2013-5-15,76,51,36,-100,-100,-100,0,0,100,0.00,40.00,0,-999,0,0.01
2013-5-16,78,54,32,-100,-100,-100,0,0,100,0.00,40.00,0,-999,0,0.02
2013-5-17,77,55,31,-100,-100,-100,0,0,100,0.00,40.00,0,-999,0,0.01
2013-5-18,69,48,32,-100,-100,-100,0,0,100,0.00,40.00,0,-999,0,0.00
2013-5-19,51,38,32,-100,-100,-100,0,0,100,0.00,40.00,0,-999,0,0.10
2013-5-20,58,41,30,-100,-100,-100,0,0,100,0.00,40.00,0,-999,0,0.07
2013-5-21,66,51,29,-100,-100,-100,0,0,100,0.00,40.00,0,-999,0,0.01
2013-5-22,78,52,30,-100,-100,-100,0,0,100,0.00,40.00,0,-999,0,0.01
2013-5-23,80,61,34,-100,-100,-100,0,0,100,0.00,40.00,0,-999,0,0.01
2013-5-24,78,56,30,-100,-100,-100,0,0,100,0.00,40.00,0,-999,0,0.01
2013-5-25,81,56,30,-100,-100,-100,0,0,100,0.00,40.00,0,-999,0,0.00
2013-5-26,79,55,33,-100,-100,-100,0,0,100,0.00,40.00,0,-999,0,0.00
2013-5-27,74,53,28,-100,-100,-100,0,0,100,0.00,40.00,0,-999,0,0.00
2013-5-28,73,52,31,-100,-100,-100,0,0,100,0.00,40.00,0,-999,0,0.00
2013-5-29,59,49,38,-100,-100,-100,0,0,100,0.00,40.00,0,-999,0,0.00
2013-5-30,44,32,28,-100,-100,-100,0,0,100,0.00,40.00,0,-999,0,0.00
2013-5-31,63,57,39,-100,-100,-100,0,0,100,0.00,40.00,0,-999,0,0.00
2013-6-1,72,52,27,-100,-100,-100,0,0,100,0.00,40.00,0,-999,0,0.01
2013-6-2,80,54,28,-100,-100,-100,0,0,100,0.00,40.00,0,-999,0,0.01
2013-6-3,79,59,34,-100,-100,-100,0,0,100,0.00,40.00,0,-999,0,0.01
2013-6-4,80,58,36,-100,-100,-100,0,0,100,0.00,40.00,0,-999,0,0.00
2013-6-5,78,60,38,-100,-100,-100,0,0,100,0.00,40.00,0,-999,0,0.00
2013-6-6,79,56,33,-100,-100,-100,0,0,100,0.00,40.00,0,-999,0,0.00
2013-6-7,76,59,42,-100,-100,-100,0,0,100,0.00,40.00,0,-999,0,0.02
2013-6-8,84,62,36,-100,-100,-100,0,0,100,0.00,40.00,0,-999,0,0.01
2013-6-9,92,63,35,-100,-100,-100,0,0,100,0.00,40.00,0,-999,0,0.01
2013-6-10,92,68,37,-100,-100,-100,0,0,100,0.00,40.00,0,-999,0,0.01
2013-6-11,84,63,39,-100,-100,-100,0,0,100,0.00,40.00,0,-999,0,0.00
2013-6-12,89,67,36,-100,-100,-100,0,0,100,0.00,40.00,0,-999,0,0.01
2013-6-13,90,66,41,-100,-100,-100,0,0,100,0.00,40.00,0,-999,0,0.00
2013-6-14,85,66,44,-100,-100,-100,0,0,100,0.00,40.00,0,-999,0,0.01
2013-6-15,81,62,32,-100,-100,-100,0,0,100,0.00,40.00,0,-999,0,0.02
2013-6-16,77,57,38,-100,-100,-100,0,0,100,0.00,40.00,0,-999,0,0.01
2013-6-17,83,62,39,-100,-100,-100,0,0,100,0.00,40.00,0,-999,0,0.02
2013-6-18,84,61,40,-100,-100,-100,0,0,100,0.00,40.00,0,-999,0,0.01
2013-6-19,86,63,33,-100,-100,-100,0,0,100,0.00,40.00,0,-999,0,0.01
2013-6-20,86,69,39,-100,-100,-100,0,0,100,0.00,40.00,0,-999,0,0.01
2013-6-22,82,71,50,-100,-100,-100,0,0,100,0.00,40.00,0,-999,0,0.01
2013-6-23,86,64,34,-100,-100,-100,0,0,100,0.00,40.00,0,-999,0,0.01
2013-6-24,81,61,37,-100,-100,-100,0,0,100,0.00,40.00,0,-999,0,0.00
2013-6-25,84,64,40,-100,-100,-100,0,0,100,0.00,40.00,0,-999,0,0.01
2013-6-26,93,68,37,-100,-100,-100,0,0,100,0.00,40.00,0,-999,0,0.01
2013-6-27,95,73,43,-100,-100,-100,0,0,100,0.00,40.00,0,-999,0,0.01
2013-6-28,92,70,45,-100,-100,-100,0,0,100,0.00,40.00,0,-999,0,0.00
2013-6-29,89,61,49,-100,-100,-100,0,0,100,0.00,40.00,0,-999,0,0.00
2013-6-30,88,62,43,-100,-100,-100,0,0,100,0.00,40.00,0,-999,0,0.00
2013-7-1,91,65,42,-100,-100,-100,0,0,100,0.00,40.00,0,-999,0,0.00
2013-7-2,89,66,46,-100,-100,-100,0,0,100,0.00,40.00,0,-999,0,0.00
2013-7-3,89,64,41,-100,-100,-100,0,0,100,0.00,40.00,0,-999,0,0.00
2013-7-4,87,67,48,-100,-100,-100,0,0,100,0.00,40.00,0,-999,0,0.00
2013-7-5,88,70,54,-100,-100,-100,0,0,100,0.00,40.00,0,-999,0,0.00
2013-7-6,81,63,52,-100,-100,-100,0,0,100,0.00,40.00,0,-999,0,0.00
2013-7-7,89,69,53,-100,-100,-100,0,0,100,0.00,40.00,0,-999,0,0.00
2013-7-8,90,64,51,-100,-100,-100,0,0,100,0.00,40.00,0,-999,0,0.00
2013-7-9,93,67,43,-100,-100,-100,0,0,100,0.00,40.00,0,-999,0,0.00
2013-7-10,92,68,54,-100,-100,-100,0,0,100,0.00,40.00,0,-999,0,0.00
2013-7-11,92,67,49,-100,-100,-100,0,0,100,0.00,40.00,0,-999,0,0.00
2013-7-12,82,63,51,-100,-100,-100,0,0,100,0.00,40.00,0,-999,0,0.03
2013-7-13,82,64,53,-100,-100,-100,0,0,100,0.00,40.00,0,-999,0,0.04
2013-7-14,84,64,52,-100,-100,-100,0,0,100,0.00,40.00,0,-999,0,0.04
2013-7-15,80,59,48,-100,-100,-100,0,0,100,0.00,40.00,0,-999,0,0.05
2013-7-16,81,63,50,-100,-100,-100,0,0,100,0.00,40.00,0,-999,0,0.03
2013-7-17,90,65,48,-100,-100,-100,0,0,100,0.00,40.00,0,-999,0,0.01
2013-7-18,86,65,49,-100,-100,-100,0,0,100,0.00,40.00,0,-999,0,0.00
2013-7-19,84,58,46,-100,-100,-100,0,0,100,0.00,40.00,0,-999,0,0.01
2013-7-20,83,63,45,-100,-100,-100,0,0,100,0.00,40.00,0,-999,0,0.01
2013-7-21,88,68,47,-100,-100,-100,0,0,100,0.00,40.00,0,-999,0,0.01
2013-7-22,88,65,44,-100,-100,-100,0,0,100,0.00,40.00,0,-999,0,0.01
2013-7-23,92,74,50,-100,-100,-100,0,0,100,0.00,40.00,0,-999,0,0.00
2013-7-24,71,60,51,-100,-100,-100,0,0,100,0.00,40.00,0,-999,0,0.01
2013-7-25,82,63,51,-100,-100,-100,0,0,100,0.00,40.00,0,-999,0,0.06
2013-7-26,84,64,43,-100,-100,-100,0,0,100,0.00,40.00,0,-999,0,0.02
2013-7-27,83,62,50,-100,-100,-100,0,0,100,0.00,40.00,0,-999,0,0.16
2013-7-28,63,56,53,-100,-100,-100,0,0,100,0.00,40.00,0,-999,0,0.68
2013-7-29,76,59,47,-100,-100,-100,0,0,100,0.00,40.00,0,-999,0,0.26
2013-7-30,79,59,45,-100,-100,-100,0,0,100,0.00,40.00,0,-999,0,0.18
2013-7-31,88,62,41,-100,-100,-100,0,0,100,0.00,40.00,0,-999,0,0.01
2013-8-1,65,57,46,-100,-100,-100,0,0,100,0.00,40.00,0,-999,0,0.06
2013-8-2,82,62,50,-100,-100,-100,0,0,100,0.00,40.00,0,-999,0,0.09
2013-8-3,61,54,51,-100,-100,-100,0,0,100,0.00,40.00,0,-999,0,0.03
2013-8-5,81,61,47,-100,-100,-100,0,0,100,0.00,40.00,0,-999,0,0.00
2013-8-6,78,58,47,-100,-100,-100,0,0,100,0.00,40.00,0,-999,0,0.00
2013-8-7,65,54,50,-100,-100,-100,0,0,100,0.00,40.00,0,-999,0,0.16
2013-8-8,73,55,47,-100,-100,-100,0,0,100,0.00,40.00,0,-999,0,0.22
2013-8-9,76,57,43,-100,-100,-100,0,0,100,0.00,40.00,0,-999,0,0.25
2013-8-10,78,55,43,-100,-100,-100,0,0,100,0.00,40.00,0,-999,0,0.10
2013-8-11,82,56,40,-100,-100,-100,0,0,100,0.00,40.00,0,-999,0,0.02
2013-8-12,77,57,43,-100,-100,-100,0,0,100,0.00,40.00,0,-999,0,0.01
2013-8-13,78,56,38,-100,-100,-100,0,0,100,0.00,40.00,0,-999,0,0.06
2013-8-14,78,55,37,-100,-100,-100,0,0,100,0.00,40.00,0,-999,0,0.01
2013-8-15,81,58,36,-100,-100,-100,0,0,100,0.00,40.00,0,-999,0,0.01
2013-8-16,88,57,36,-100,-100,-100,0,0,100,0.00,40.00,0,-999,0,0.01
2013-8-17,86,61,37,-100,-100,-100,0,0,100,0.00,40.00,0,-999,0,0.00
2013-8-18,82,58,43,-100,-100,-100,0,0,100,0.00,40.00,0,-999,0,0.00
2013-8-19,87,59,42,-100,-100,-100,0,0,100,0.00,40.00,0,-999,0,0.01
2013-8-20,85,62,44,-100,-100,-100,0,0,100,0.00,40.00,0,-999,0,0.03
2013-8-21,84,60,43,-100,-100,-100,0,0,100,0.00,40.00,0,-999,0,0.03
2013-8-22,88,60,48,-100,-100,-100,0,0,100,0.00,40.00,0,-999,0,0.01
2013-8-23,77,59,47,-100,-100,-100,0,0,100,0.00,40.00,0,-999,0,0.00
2013-8-24,77,58,47,-100,-100,-100,0,0,100,0.00,40.00,0,-999,0,0.00
2013-8-25,69,60,50,-100,-100,-100,0,0,100,0.00,40.00,0,-999,0,0.01
2013-8-26,85,63,54,-100,-100,-100,0,0,100,0.00,40.00,0,-999,0,0.18
2013-8-27,77,54,44,-100,-100,-100,0,0,100,0.00,40.00,0,-999,0,0.16
2013-8-28,84,73,58,-100,-100,-100,0,0,100,0.00,40.00,0,-999,0,0.04
2013-8-29,91,65,44,-100,-100,-100,0,0,100,0.00,40.00,0,-999,0,0.01
2013-8-30,86,66,54,-100,-100,-100,0,0,100,0.00,40.00,0,-999,0,0.01
2013-8-31,82,62,47,-100,-100,-100,0,0,100,0.00,40.00,0,-999,0,0.00
2013-9-1,86,61,45,-100,-100,-100,0,0,100,0.00,40.00,0,-999,0,0.01
2013-9-2,87,63,51,-100,-100,-100,0,0,100,0.00,40.00,0,-999,0,0.05
2013-9-3,85,64,45,-100,-100,-100,0,0,100,0.00,40.00,0,-999,0,0.09
2013-9-4,85,62,49,-100,-100,-100,0,0,100,0.00,40.00,0,-999,0,0.02
2013-9-5,91,64,45,-100,-100,-100,0,0,100,0.00,40.00,0,-999,0,0.04
2013-9-6,91,64,43,-100,-100,-100,0,0,100,0.00,40.00,0,-999,0,0.02
2013-9-7,84,60,42,-100,-100,-100,0,0,100,0.00,40.00,0,-999,0,0.01
2013-9-8,80,63,50,-100,-100,-100,0,0,100,0.00,40.00,0,-999,0,0.00
2013-9-9,71,57,43,-100,-100,-100,0,0,100,0.00,40.00,0,-999,0,0.00
2013-9-10,67,56,50,-100,-100,-100,0,0,100,0.00,40.00,0,-999,0,0.01
2013-9-11,77,58,49,-100,-100,-100,0,0,100,0.00,40.00,0,-999,0,0.48
2013-9-12,72,54,44,-100,-100,-100,0,0,100,0.00,40.00,0,-999,0,0.36
2013-9-13,68,56,47,-100,-100,-100,0,0,100,0.00,40.00,0,-999,0,0.67
2013-9-14,67,54,48,-100,-100,-100,0,0,100,0.00,40.00,0,-999,0,0.04
2013-9-15,65,51,45,-100,-100,-100,0,0,100,0.00,40.00,0,-999,0,0.03
2013-9-16,76,52,40,-100,-100,-100,0,0,100,0.00,40.00,0,-999,0,0.05
2013-9-17,77,54,38,-100,-100,-100,0,0,100,0.00,40.00,0,-999,0,0.01
2013-9-18,49,47,43,-100,-100,-100,0,0,100,0.00,40.00,0,-999,0,0.07
2013-9-19,72,52,39,-100,-100,-100,0,0,100,0.00,40.00,0,-999,0,0.15
2013-9-20,80,49,29,-100,-100,-100,0,0,100,0.00,40.00,0,-999,0,0.01
2013-9-21,74,54,33,-100,-100,-100,0,0,100,0.00,40.00,0,-999,0,0.01
2013-9-22,60,48,40,-100,-100,-100,0,0,100,0.00,40.00,0,-999,0,0.58
2013-9-23,62,45,37,-100,-100,-100,0,0,100,0.00,40.00,0,-999,0,0.55
2013-9-24,77,44,28,-100,-100,-100,0,0,100,0.00,40.00,0,-999,0,0.01
2013-9-25,77,50,29,-100,-100,-100,0,0,100,0.00,40.00,0,-999,0,0.01
2013-9-26,75,56,35,-100,-100,-100,0,0,100,0.00,40.00,0,-999,0,0.01
2013-9-27,54,44,29,-100,-100,-100,0,0,100,0.00,40.00,0,-999,0,0.32
2013-9-28,66,37,21,-100,-100,-100,0,0,100,0.00,40.00,0,-999,0,0.06
2013-9-29,68,44,25,-100,-100,-100,0,0,100,0.00,40.00,0,-999,0,0.04
2013-9-30,78,46,28,-100,-100,-100,0,0,100,0.00,40.00,0,-999,0,0.01
2013-10-1,55,48,38,-100,-100,-100,0,0,100,0.00,40.00,0,-999,0,0.00
2013-10-2,74,47,25,-100,-100,-100,0,0,100,0.00,40.00,0,-999,0,0.02
2013-10-3,70,46,26,-100,-100,-100,0,0,100,0.00,40.00,0,-999,0,0.00
2013-10-4,45,35,25,-100,-100,-100,0,0,100,0.00,40.00,0,-999,0,0.00
2013-10-5,53,34,19,-100,-100,-100,0,0,100,0.00,40.00,0,-999,0,0.00
2013-10-6,66,36,17,-100,-100,-100,0,0,100,0.00,40.00,0,-999,0,0.00
2013-10-7,75,47,21,-100,-100,-100,0,0,100,0.00,40.00,0,-999,0,0.00
2013-10-8,71,46,26,-100,-100,-100,0,0,100,0.00,40.00,0,-999,0,0.01
2013-10-9,68,47,25,-100,-100,-100,0,0,100,0.00,40.00,0,-999,0,0.00
2013-10-10,52,41,35,-100,-100,-100,0,0,100,0.00,40.00,0,-999,0,0.09
2013-10-11,51,40,32,-100,-100,-100,0,0,100,0.00,40.00,0,-999,0,0.04
2013-10-12,61,38,25,-100,-100,-100,0,0,100,0.00,40.00,0,-999,0,0.01
2013-10-13,64,44,28,-100,-100,-100,0,0,100,0.00,40.00,0,-999,0,0.01
2013-10-14,47,37,31,-100,-100,-100,0,0,100,0.00,40.00,0,-999,0,0.01
2013-10-15,49,36,30,-100,-100,-100,0,0,100,0.00,40.00,0,-999,0,0.03
2013-10-16,43,34,25,-100,-100,-100,0,0,100,0.00,40.00,0,-999,0,0.12
2013-10-17,55,32,15,-100,-100,-100,0,0,100,0.00,40.00,0,-999,0,0.01
2013-10-18,50,33,22,-100,-100,-100,0,0,100,0.00,40.00,0,-999,0,0.01
2013-10-19,58,33,14,-100,-100,-100,0,0,100,0.00,40.00,0,-999,0,0.01
2013-10-20,55,34,15,-100,-100,-100,0,0,100,0.00,40.00,0,-999,0,0.00
2013-10-21,61,35,22,-100,-100,-100,0,0,100,0.00,40.00,0,-999,0,0.01
2013-10-22,66,37,15,-100,-100,-100,0,0,100,0.00,40.00,0,-999,0,0.01
2013-10-23,70,43,17,-100,-100,-100,0,0,100,0.00,40.00,0,-999,0,0.00
2013-10-24,65,46,18,-100,-100,-100,0,0,100,0.00,40.00,0,-999,0,0.00
2013-10-25,50,41,21,-100,-100,-100,0,0,100,0.00,40.00,0,-999,0,0.00
2013-10-26,62,38,26,-100,-100,-100,0,0,100,0.00,40.00,0,-999,0,0.00
2013-10-27,61,43,17,-100,-100,-100,0,0,100,0.00,40.00,0,-999,0,0.00
2013-10-28,61,42,28,-100,-100,-100,0,0,100,0.00,40.00,0,-999,0,0.00
2013-10-29,53,41,32,-100,-100,-100,0,0,100,0.00,40.00,0,-999,0,0.00
2013-10-30,40,29,16,-100,-100,-100,0,0,100,0.00,40.00,0,-999,0,0.00
2013-10-31,35,30,23,-100,-100,-100,0,0,100,0.00,40.00,0,-999,0,0.00
2013-11-1,47,33,24,-100,-100,-100,0,0,100,0.00,40.00,0,-999,0,0.01
2013-11-2,59,33,12,-100,-100,-100,0,0,100,0.00,40.00,0,-999,0,0.01
2013-11-3,56,38,17,-100,-100,-100,0,0,100,0.00,40.00,0,-999,0,0.02
2013-11-4,43,30,16,-100,-100,-100,0,0,100,0.00,40.00,0,-999,0,0.01
2013-11-5,37,27,11,-100,-100,-100,0,0,100,0.00,40.00,0,-999,0,0.00
2013-11-7,51,30,9,-100,-100,-100,0,0,100,0.00,40.00,0,-999,0,0.00
2013-11-8,57,41,20,-100,-100,-100,0,0,100,0.00,40.00,0,-999,0,0.01
2013-11-9,59,40,17,-100,-100,-100,0,0,100,0.00,40.00,0,-999,0,0.01
2013-11-10,64,40,11,-100,-100,-100,0,0,100,0.00,40.00,0,-999,0,0.00
2013-11-11,59,41,18,-100,-100,-100,0,0,100,0.00,40.00,0,-999,0,0.00
2013-11-12,64,40,18,-100,-100,-100,0,0,100,0.00,40.00,0,-999,0,0.00
2013-11-13,54,38,17,-100,-100,-100,0,0,100,0.00,40.00,0,-999,0,0.00
2013-11-14,54,35,22,-100,-100,-100,0,0,100,0.00,40.00,0,-999,0,0.00
2013-11-15,49,31,15,-100,-100,-100,0,0,100,0.00,40.00,0,-999,0,0.00
2013-11-16,36,32,23,-100,-100,-100,0,0,100,0.00,40.00,0,-999,0,0.04
2013-11-17,48,34,16,-100,-100,-100,0,0,100,0.00,40.00,0,-999,0,0.24
2013-11-18,43,26,7,-100,-100,-100,0,0,100,0.00,40.00,0,-999,0,0.02
2013-11-19,35,25,8,-100,-100,-100,0,0,100,0.00,40.00,0,-999,0,0.01
2013-11-20,46,33,23,-100,-100,-100,0,0,100,0.00,40.00,0,-999,0,0.00
2013-11-21,41,34,31,-100,-100,-100,0,0,100,0.00,40.00,0,-999,0,0.15
2013-11-22,35,32,30,-100,-100,-100,0,0,100,0.00,40.00,0,-999,0,0.03
2013-11-23,37,31,23,-100,-100,-100,0,0,100,0.00,40.00,0,-999,0,0.05
2013-11-24,38,30,22,-100,-100,-100,0,0,100,0.00,40.00,0,-999,0,0.05
2013-11-25,41,25,16,-100,-100,-100,0,0,100,0.00,40.00,0,-999,0,0.01
2013-11-26,34,19,9,-100,-100,-100,0,0,100,0.00,40.00,0,-999,0,0.01
2013-11-27,37,17,7,-100,-100,-100,0,0,100,0.00,40.00,0,-999,0,0.01
2013-11-28,43,18,5,-100,-100,-100,0,0,100,0.00,40.00,0,-999,0,0.00
2013-11-29,43,20,4,-100,-100,-100,0,0,100,0.00,40.00,0,-999,0,0.00
2013-11-30,45,16,5,-100,-100,-100,0,0,100,0.00,40.00,0,-999,0,0.00
2013-12-1,43,23,3,-100,-100,-100,0,0,100,0.00,40.00,0,-999,0,0.00
2013-12-2,46,34,22,-100,-100,-100,0,0,100,0.00,40.00,0,-999,0,0.02
2013-12-3,36,30,23,-100,-100,-100,0,0,100,0.00,40.00,0,-999,0,0.01
2013-12-4,32,24,6,-100,-100,-100,0,0,100,0.00,40.00,0,-999,0,0.00
2013-12-5,14,-2,-13,-100,-100,-100,0,0,100,0.00,40.00,0,-999,0,0.00
2013-12-6,18,0,-13,-100,-100,-100,0,0,100,0.00,40.00,0,-999,0,0.00
2013-12-7,14,9,-3,-100,-100,-100,0,0,100,0.00,40.00,0,-999,0,0.00
2013-12-13,18,9,-7,-100,-100,-100,0,0,100,0.00,40.00,0,-999,0,0.00
2013-12-14,28,12,-11,-100,-100,-100,0,0,100,0.00,40.00,0,-999,0,0.00
2013-12-15,30,17,-4,-100,-100,-100,0,0,100,0.00,40.00,0,-999,0,0.00
2013-12-16,33,20,2,-100,-100,-100,0,0,100,0.00,40.00,0,-999,0,0.00
2013-12-17,30,14,-5,-100,-100,-100,0,0,100,0.00,40.00,0,-999,0,0.00
2013-12-18,28,17,3,-100,-100,-100,0,0,100,0.00,40.00,0,-999,0,0.00
2013-12-19,37,22,8,-100,-100,-100,0,0,100,0.00,40.00,0,-999,0,0.00
2013-12-20,35,22,15,-100,-100,-100,0,0,100,0.00,40.00,0,-999,0,0.00
2013-12-21,27,17,7,-100,-100,-100,0,0,100,0.00,40.00,0,-999,0,0.00
2013-12-22,20,10,-2,-100,-100,-100,0,0,100,0.00,40.00,0,-999,0,0.00
2013-12-23,34,23,8,-100,-100,-100,0,0,100,0.00,40.00,0,-999,0,0.00
2013-12-24,32,19,3,-100,-100,-100,0,0,100,0.00,40.00,0,-999,0,0.00
2013-12-25,27,12,-1,-100,-100,-100,0,0,100,0.00,40.00,0,-999,0,0.00
2013-12-26,23,12,-5,-100,-100,-100,0,0,100,0.00,40.00,0,-999,0,0.00
2013-12-27,28,14,-8,-100,-100,-100,0,0,100,0.00,40.00,0,-999,0,0.00
2013-12-28,21,14,-5,-100,-100,-100,0,0,100,0.00,40.00,0,-999,0,0.00
2013-12-29,34,16,2,-100,-100,-100,0,0,100,0.00,40.00,0,-999,0,0.00
2013-12-30,33,18,-4,-100,-100,-100,0,0,100,0.00,40.00,0,-999,0,0.00
2013-12-31,32,22,9,-100,-100,-100,0,0,100,0.00,40.00,0,-999,0,0.00
2014-1-1,38,26,9,-100,-100,-100,0,0,100,0.00,40.00,0,-999,0,0.01
2014-1-2,30,18,-4,-100,-100,-100,0,0,100,0.00,40.00,0,-999,0,0.01